sensor_id;sensor_type;location;lat;lon;timestamp;P1;durP1;ratioP1;P2;durP2;ratioP2
44664;SDS011;30382;48.802;9.388;2023-05-07T09:29:57;7.33;;;5.23;;
44664;SDS011;30382;48.802;9.388;2023-05-07T09:33:26;3.50;;;2.70;;
44664;SDS011;30382;48.802;9.388;2023-05-07T09:45:20;3.20;;;2.90;;
44664;SDS011;30382;48.802;9.388;2023-05-07T09:48:39;3.60;;;2.23;;
44664;SDS011;30382;48.802;9.388;2023-05-07T09:58:30;4.13;;;2.93;;
44664;SDS011;30382;48.802;9.388;2023-05-07T10:01:15;4.57;;;2.33;;
44664;SDS011;30382;48.802;9.388;2023-05-07T10:04:01;4.63;;;2.70;;
44664;SDS011;30382;48.802;9.388;2023-05-07T10:06:47;2.73;;;2.53;;
44664;SDS011;30382;48.802;9.388;2023-05-07T10:09:33;3.27;;;2.87;;
44664;SDS011;30382;48.802;9.388;2023-05-07T10:12:18;2.50;;;2.30;;
44664;SDS011;30382;48.802;9.388;2023-05-07T10:15:03;2.53;;;2.43;;
44664;SDS011;30382;48.802;9.388;2023-05-07T10:17:48;2.10;;;1.93;;
44664;SDS011;30382;48.802;9.388;2023-05-07T10:20:33;2.30;;;2.10;;
44664;SDS011;30382;48.802;9.388;2023-05-07T10:23:19;2.20;;;2.00;;
44664;SDS011;30382;48.802;9.388;2023-05-07T10:26:07;2.57;;;2.47;;
44664;SDS011;30382;48.802;9.388;2023-05-07T10:32:26;4.30;;;4.00;;
44664;SDS011;30382;48.802;9.388;2023-05-07T10:35:18;6.70;;;6.30;;
44664;SDS011;30382;48.802;9.388;2023-05-07T10:38:04;2.30;;;2.20;;
44664;SDS011;30382;48.802;9.388;2023-05-07T10:40:50;3.60;;;3.30;;
44664;SDS011;30382;48.802;9.388;2023-05-07T10:43:39;3.20;;;2.90;;
44664;SDS011;30382;48.802;9.388;2023-05-07T10:46:25;4.67;;;4.20;;
44664;SDS011;30382;48.802;9.388;2023-05-07T10:49:19;3.00;;;2.50;;
44664;SDS011;30382;48.802;9.388;2023-05-07T10:52:29;3.07;;;2.70;;
44664;SDS011;30382;48.802;9.388;2023-05-07T10:55:27;4.57;;;4.27;;
44664;SDS011;30382;48.802;9.388;2023-05-07T10:58:32;2.43;;;2.10;;
44664;SDS011;30382;48.802;9.388;2023-05-07T11:01:57;2.20;;;2.00;;
44664;SDS011;30382;48.802;9.388;2023-05-07T11:05:20;2.50;;;2.30;;
44664;SDS011;30382;48.802;9.388;2023-05-07T11:08:08;2.40;;;2.30;;
44664;SDS011;30382;48.802;9.388;2023-05-07T11:11:00;3.57;;;2.30;;
44664;SDS011;30382;48.802;9.388;2023-05-07T11:13:53;1.70;;;1.60;;
44664;SDS011;30382;48.802;9.388;2023-05-07T11:16:44;2.60;;;2.40;;
44664;SDS011;30382;48.802;9.388;2023-05-07T11:19:55;2.30;;;2.20;;
44664;SDS011;30382;48.802;9.388;2023-05-07T11:30:01;2.63;;;2.43;;
44664;SDS011;30382;48.802;9.388;2023-05-07T11:45:14;6.03;;;4.20;;
44664;SDS011;30382;48.802;9.388;2023-05-07T11:54:21;6.00;;;3.60;;
44664;SDS011;30382;48.802;9.388;2023-05-07T11:57:06;8.23;;;4.00;;
44664;SDS011;30382;48.802;9.388;2023-05-07T12:12:13;6.63;;;4.47;;
44664;SDS011;30382;48.802;9.388;2023-05-07T12:47:28;3.60;;;3.27;;
44664;SDS011;30382;48.802;9.388;2023-05-07T12:50:32;12.57;;;6.97;;
44664;SDS011;30382;48.802;9.388;2023-05-07T13:04:35;8.63;;;4.27;;
44664;SDS011;30382;48.802;9.388;2023-05-07T13:15:33;6.33;;;4.07;;
44664;SDS011;30382;48.802;9.388;2023-05-07T13:18:17;3.60;;;3.40;;
44664;SDS011;30382;48.802;9.388;2023-05-07T13:21:01;3.80;;;3.50;;
44664;SDS011;30382;48.802;9.388;2023-05-07T13:23:46;4.70;;;3.30;;
44664;SDS011;30382;48.802;9.388;2023-05-07T13:26:30;5.03;;;3.60;;
44664;SDS011;30382;48.802;9.388;2023-05-07T13:29:15;7.73;;;3.77;;
44664;SDS011;30382;48.802;9.388;2023-05-07T13:31:59;9.50;;;3.17;;
44664;SDS011;30382;48.802;9.388;2023-05-07T13:34:44;3.50;;;2.70;;
44664;SDS011;30382;48.802;9.388;2023-05-07T13:37:28;4.43;;;2.03;;
44664;SDS011;30382;48.802;9.388;2023-05-07T13:40:12;2.47;;;1.80;;
44664;SDS011;30382;48.802;9.388;2023-05-07T13:42:57;1.63;;;0.93;;
44664;SDS011;30382;48.802;9.388;2023-05-07T13:45:42;1.13;;;1.00;;
44664;SDS011;30382;48.802;9.388;2023-05-07T13:51:12;1.23;;;1.13;;
44664;SDS011;30382;48.802;9.388;2023-05-07T13:53:56;2.07;;;1.87;;
44664;SDS011;30382;48.802;9.388;2023-05-07T13:56:42;3.50;;;1.70;;
44664;SDS011;30382;48.802;9.388;2023-05-07T13:59:27;1.97;;;1.87;;
44664;SDS011;30382;48.802;9.388;2023-05-07T14:02:11;1.50;;;1.40;;
44664;SDS011;30382;48.802;9.388;2023-05-07T14:04:55;3.33;;;1.70;;
44664;SDS011;30382;48.802;9.388;2023-05-07T14:07:40;2.00;;;1.90;;
44664;SDS011;30382;48.802;9.388;2023-05-07T14:10:24;1.93;;;1.70;;
44664;SDS011;30382;48.802;9.388;2023-05-07T14:13:08;3.03;;;2.07;;
44664;SDS011;30382;48.802;9.388;2023-05-07T14:15:53;2.40;;;1.97;;
44664;SDS011;30382;48.802;9.388;2023-05-07T14:18:37;1.80;;;1.70;;
44664;SDS011;30382;48.802;9.388;2023-05-07T14:21:22;7.03;;;1.70;;
44664;SDS011;30382;48.802;9.388;2023-05-07T14:24:07;1.43;;;1.33;;
44664;SDS011;30382;48.802;9.388;2023-05-07T14:26:52;1.20;;;1.10;;
44664;SDS011;30382;48.802;9.388;2023-05-07T14:29:36;1.73;;;1.27;;
44664;SDS011;30382;48.802;9.388;2023-05-07T14:32:21;4.30;;;1.53;;
44664;SDS011;30382;48.802;9.388;2023-05-07T14:35:06;1.10;;;1.10;;
44664;SDS011;30382;48.802;9.388;2023-05-07T14:37:50;2.20;;;1.43;;
44664;SDS011;30382;48.802;9.388;2023-05-07T14:40:35;2.70;;;2.00;;
44664;SDS011;30382;48.802;9.388;2023-05-07T14:43:19;3.13;;;1.77;;
44664;SDS011;30382;48.802;9.388;2023-05-07T14:46:04;3.43;;;2.30;;
44664;SDS011;30382;48.802;9.388;2023-05-07T14:48:48;2.63;;;1.93;;
44664;SDS011;30382;48.802;9.388;2023-05-07T14:51:32;3.00;;;2.20;;
44664;SDS011;30382;48.802;9.388;2023-05-07T14:54:17;2.27;;;1.93;;
44664;SDS011;30382;48.802;9.388;2023-05-07T14:57:01;2.43;;;1.67;;
44664;SDS011;30382;48.802;9.388;2023-05-07T14:59:45;1.73;;;1.63;;
44664;SDS011;30382;48.802;9.388;2023-05-07T15:02:31;3.67;;;1.90;;
44664;SDS011;30382;48.802;9.388;2023-05-07T15:05:15;4.67;;;1.80;;
44664;SDS011;30382;48.802;9.388;2023-05-07T15:07:59;2.00;;;1.83;;
44664;SDS011;30382;48.802;9.388;2023-05-07T15:10:44;3.00;;;1.90;;
44664;SDS011;30382;48.802;9.388;2023-05-07T15:13:28;3.23;;;2.37;;
44664;SDS011;30382;48.802;9.388;2023-05-07T15:16:12;2.40;;;1.80;;
44664;SDS011;30382;48.802;9.388;2023-05-07T15:18:57;2.90;;;1.87;;
44664;SDS011;30382;48.802;9.388;2023-05-07T15:21:41;3.70;;;2.43;;
44664;SDS011;30382;48.802;9.388;2023-05-07T15:24:26;3.83;;;2.10;;
44664;SDS011;30382;48.802;9.388;2023-05-07T15:27:10;3.20;;;1.97;;
44664;SDS011;30382;48.802;9.388;2023-05-07T15:29:54;4.93;;;2.13;;
44664;SDS011;30382;48.802;9.388;2023-05-07T15:32:39;2.63;;;2.20;;
44664;SDS011;30382;48.802;9.388;2023-05-07T15:35:23;2.17;;;2.00;;
44664;SDS011;30382;48.802;9.388;2023-05-07T15:38:09;2.20;;;2.00;;
44664;SDS011;30382;48.802;9.388;2023-05-07T15:40:54;1.87;;;1.77;;
44664;SDS011;30382;48.802;9.388;2023-05-07T15:43:43;8.00;;;2.87;;
44664;SDS011;30382;48.802;9.388;2023-05-07T15:46:27;4.83;;;2.83;;
44664;SDS011;30382;48.802;9.388;2023-05-07T15:49:12;3.40;;;3.10;;
44664;SDS011;30382;48.802;9.388;2023-05-07T15:51:56;2.93;;;2.30;;
44664;SDS011;30382;48.802;9.388;2023-05-07T15:54:40;3.57;;;2.23;;
44664;SDS011;30382;48.802;9.388;2023-05-07T15:57:25;2.50;;;2.30;;
44664;SDS011;30382;48.802;9.388;2023-05-07T16:00:09;4.33;;;2.43;;
44664;SDS011;30382;48.802;9.388;2023-05-07T16:02:58;2.47;;;2.17;;
44664;SDS011;30382;48.802;9.388;2023-05-07T16:05:43;3.17;;;2.60;;
44664;SDS011;30382;48.802;9.388;2023-05-07T16:08:27;2.67;;;2.47;;
44664;SDS011;30382;48.802;9.388;2023-05-07T16:11:11;2.70;;;2.50;;
44664;SDS011;30382;48.802;9.388;2023-05-07T16:13:56;2.43;;;1.73;;
44664;SDS011;30382;48.802;9.388;2023-05-07T16:16:40;2.47;;;2.10;;
44664;SDS011;30382;48.802;9.388;2023-05-07T16:19:24;2.67;;;2.40;;
44664;SDS011;30382;48.802;9.388;2023-05-07T16:22:09;5.17;;;3.30;;
44664;SDS011;30382;48.802;9.388;2023-05-07T16:24:54;2.63;;;2.43;;
44664;SDS011;30382;48.802;9.388;2023-05-07T16:27:38;2.60;;;2.40;;
44664;SDS011;30382;48.802;9.388;2023-05-07T16:30:23;4.50;;;2.70;;
44664;SDS011;30382;48.802;9.388;2023-05-07T16:33:07;3.93;;;2.03;;
44664;SDS011;30382;48.802;9.388;2023-05-07T16:35:52;2.07;;;1.87;;
44664;SDS011;30382;48.802;9.388;2023-05-07T16:38:36;2.70;;;2.50;;
44664;SDS011;30382;48.802;9.388;2023-05-07T16:41:21;4.73;;;2.40;;
44664;SDS011;30382;48.802;9.388;2023-05-07T16:44:06;2.70;;;2.50;;
44664;SDS011;30382;48.802;9.388;2023-05-07T16:46:52;3.23;;;3.00;;
44664;SDS011;30382;48.802;9.388;2023-05-07T16:49:36;2.00;;;1.90;;
44664;SDS011;30382;48.802;9.388;2023-05-07T16:52:21;4.33;;;2.27;;
44664;SDS011;30382;48.802;9.388;2023-05-07T16:55:05;4.50;;;2.80;;
44664;SDS011;30382;48.802;9.388;2023-05-07T16:57:50;4.93;;;3.70;;
44664;SDS011;30382;48.802;9.388;2023-05-07T17:00:34;3.97;;;3.33;;
44664;SDS011;30382;48.802;9.388;2023-05-07T17:03:19;4.03;;;3.40;;
44664;SDS011;30382;48.802;9.388;2023-05-07T17:06:03;5.07;;;3.13;;
44664;SDS011;30382;48.802;9.388;2023-05-07T17:08:48;3.07;;;2.80;;
44664;SDS011;30382;48.802;9.388;2023-05-07T17:11:34;2.90;;;2.70;;
44664;SDS011;30382;48.802;9.388;2023-05-07T17:14:18;4.13;;;2.90;;
44664;SDS011;30382;48.802;9.388;2023-05-07T17:17:03;3.43;;;3.10;;
44664;SDS011;30382;48.802;9.388;2023-05-07T17:19:47;3.40;;;3.10;;
44664;SDS011;30382;48.802;9.388;2023-05-07T17:22:32;6.00;;;3.70;;
44664;SDS011;30382;48.802;9.388;2023-05-07T17:25:16;4.67;;;4.27;;
44664;SDS011;30382;48.802;9.388;2023-05-07T17:28:00;5.07;;;3.93;;
44664;SDS011;30382;48.802;9.388;2023-05-07T17:30:45;3.53;;;3.23;;
44664;SDS011;30382;48.802;9.388;2023-05-07T17:33:30;4.10;;;3.80;;
44664;SDS011;30382;48.802;9.388;2023-05-07T17:36:15;6.50;;;3.63;;
44664;SDS011;30382;48.802;9.388;2023-05-07T17:38:59;4.73;;;3.00;;
44664;SDS011;30382;48.802;9.388;2023-05-07T17:41:43;6.30;;;3.10;;
44664;SDS011;30382;48.802;9.388;2023-05-07T17:44:28;4.20;;;3.50;;
44664;SDS011;30382;48.802;9.388;2023-05-07T17:47:12;4.23;;;3.83;;
44664;SDS011;30382;48.802;9.388;2023-05-07T17:49:57;4.57;;;4.27;;
44664;SDS011;30382;48.802;9.388;2023-05-07T17:52:41;6.40;;;3.80;;
44664;SDS011;30382;48.802;9.388;2023-05-07T17:55:25;7.17;;;4.70;;
44664;SDS011;30382;48.802;9.388;2023-05-07T17:58:10;3.60;;;2.80;;
44664;SDS011;30382;48.802;9.388;2023-05-07T18:00:55;3.77;;;2.50;;
44664;SDS011;30382;48.802;9.388;2023-05-07T18:03:39;4.40;;;3.80;;
44664;SDS011;30382;48.802;9.388;2023-05-07T18:06:23;4.63;;;3.60;;
44664;SDS011;30382;48.802;9.388;2023-05-07T18:09:08;3.10;;;2.90;;
44664;SDS011;30382;48.802;9.388;2023-05-07T18:11:52;3.83;;;3.57;;
44664;SDS011;30382;48.802;9.388;2023-05-07T18:14:36;3.90;;;3.60;;
44664;SDS011;30382;48.802;9.388;2023-05-07T18:17:20;3.47;;;3.17;;
44664;SDS011;30382;48.802;9.388;2023-05-07T18:20:06;5.20;;;3.73;;
44664;SDS011;30382;48.802;9.388;2023-05-07T18:22:54;5.70;;;5.20;;
44664;SDS011;30382;48.802;9.388;2023-05-07T18:25:38;7.03;;;4.80;;
44664;SDS011;30382;48.802;9.388;2023-05-07T18:28:22;6.33;;;4.63;;
44664;SDS011;30382;48.802;9.388;2023-05-07T18:31:07;5.43;;;4.20;;
44664;SDS011;30382;48.802;9.388;2023-05-07T18:33:51;4.50;;;4.17;;
44664;SDS011;30382;48.802;9.388;2023-05-07T18:36:36;4.30;;;3.90;;
44664;SDS011;30382;48.802;9.388;2023-05-07T18:39:20;5.03;;;3.93;;
44664;SDS011;30382;48.802;9.388;2023-05-07T18:42:04;5.27;;;4.47;;
44664;SDS011;30382;48.802;9.388;2023-05-07T18:44:51;6.60;;;4.00;;
44664;SDS011;30382;48.802;9.388;2023-05-07T18:47:35;6.40;;;4.80;;
44664;SDS011;30382;48.802;9.388;2023-05-07T18:50:20;6.60;;;5.30;;
44664;SDS011;30382;48.802;9.388;2023-05-07T18:53:04;5.53;;;4.40;;
44664;SDS011;30382;48.802;9.388;2023-05-07T18:55:49;5.53;;;4.87;;
44664;SDS011;30382;48.802;9.388;2023-05-07T18:58:33;5.87;;;5.30;;
